createdAt,value
2022-11-28T00:01:29.809Z,12.00
2022-11-28T00:03:57.427Z,11.90
2022-11-28T00:06:26.068Z,11.17
2022-11-28T00:08:54.184Z,12.17
2022-11-28T00:11:21.742Z,12.40
2022-11-28T00:13:49.349Z,11.33
2022-11-28T00:16:21.670Z,11.23
2022-11-28T00:18:50.824Z,12.60
2022-11-28T00:21:19.493Z,12.53
2022-11-28T00:23:48.700Z,12.50
2022-11-28T00:26:20.865Z,11.37
2022-11-28T00:28:48.478Z,12.80
2022-11-28T00:31:24.876Z,12.37
2022-11-28T00:33:53.141Z,12.10
2022-11-28T00:36:21.557Z,11.37
2022-11-28T00:38:50.238Z,11.73
2022-11-28T00:41:23.826Z,11.90
2022-11-28T00:43:52.089Z,12.57
2022-11-28T00:46:21.471Z,12.07
2022-11-28T00:48:49.308Z,12.20
2022-11-28T00:51:18.391Z,11.80
2022-11-28T00:53:48.063Z,11.40
2022-11-28T00:56:18.711Z,10.90
2022-11-28T00:58:49.511Z,11.83
2022-11-28T01:01:23.610Z,11.87
2022-11-28T01:03:53.115Z,11.10
2022-11-28T01:06:32.746Z,11.97
2022-11-28T01:09:02.330Z,11.93
2022-11-28T01:11:30.137Z,11.00
2022-11-28T01:14:00.080Z,10.63
2022-11-28T01:16:29.074Z,12.90
2022-11-28T01:18:57.186Z,10.60
2022-11-28T01:21:30.213Z,10.67
2022-11-28T01:23:58.024Z,10.23
2022-11-28T01:26:28.348Z,10.40
2022-11-28T01:28:56.248Z,10.67
2022-11-28T01:31:26.719Z,11.00
2022-11-28T01:33:55.558Z,10.37
2022-11-28T01:36:23.658Z,11.07
2022-11-28T01:38:52.033Z,10.53
2022-11-28T01:41:25.703Z,10.67
2022-11-28T01:44:05.871Z,10.30
2022-11-28T01:46:34.506Z,12.03
2022-11-28T01:49:17.401Z,12.07
2022-11-28T01:51:50.237Z,10.40
2022-11-28T01:54:20.611Z,10.90
2022-11-28T01:56:52.811Z,10.67
2022-11-28T01:59:21.465Z,10.60
2022-11-28T02:01:49.205Z,12.20
2022-11-28T02:04:16.833Z,10.47
2022-11-28T02:06:44.851Z,9.87
2022-11-28T02:09:14.085Z,10.53
2022-11-28T02:11:57.605Z,9.93
2022-11-28T02:14:44.287Z,10.30
2022-11-28T02:17:28.288Z,9.63
2022-11-28T02:20:07.629Z,9.90
2022-11-28T02:23:03.255Z,10.00
2022-11-28T02:25:42.870Z,10.67
2022-11-28T02:28:22.069Z,9.53
2022-11-28T02:31:23.554Z,9.97
2022-11-28T02:33:59.194Z,11.07
2022-11-28T02:36:43.073Z,10.80
2022-11-28T02:39:16.411Z,9.73
2022-11-28T02:42:01.091Z,10.07
2022-11-28T02:44:52.591Z,10.17
2022-11-28T02:47:37.793Z,10.63
2022-11-28T02:50:26.332Z,9.98
2022-11-28T02:53:10.324Z,10.23
2022-11-28T02:55:40.479Z,11.00
2022-11-28T02:58:09.704Z,10.57
2022-11-28T03:00:40.578Z,10.07
2022-11-28T03:03:13.931Z,10.27
2022-11-28T03:05:57.393Z,10.00
2022-11-28T03:08:36.626Z,10.17
2022-11-28T03:11:21.560Z,13.70
2022-11-28T03:14:05.117Z,10.63
2022-11-28T03:16:49.495Z,10.40
2022-11-28T03:19:25.630Z,10.60
2022-11-28T03:22:10.184Z,10.40
2022-11-28T03:24:44.735Z,11.07
2022-11-28T03:27:16.834Z,10.90
2022-11-28T03:29:51.703Z,10.93
2022-11-28T03:32:28.294Z,11.73
2022-11-28T03:35:05.999Z,10.97
2022-11-28T03:37:37.868Z,10.83
2022-11-28T03:40:10.911Z,11.70
2022-11-28T03:42:54.367Z,12.00
2022-11-28T03:45:25.511Z,11.67
2022-11-28T03:48:00.910Z,11.30
2022-11-28T03:50:44.482Z,11.53
2022-11-28T03:53:20.187Z,11.20
2022-11-28T03:56:02.162Z,11.50
2022-11-28T03:58:55.288Z,10.90
2022-11-28T04:01:31.509Z,10.97
2022-11-28T04:04:18.147Z,12.10
2022-11-28T04:07:09.239Z,11.73
2022-11-28T04:09:42.043Z,12.50
2022-11-28T04:12:23.705Z,12.07
2022-11-28T04:15:02.533Z,12.03
2022-11-28T04:18:18.048Z,12.60
2022-11-28T04:25:39.741Z,12.03
2022-11-28T04:28:48.418Z,12.47
2022-11-28T04:35:56.600Z,12.67
2022-11-28T04:39:07.530Z,12.63
2022-11-28T04:42:08.215Z,12.97
2022-11-28T04:48:22.571Z,12.67
2022-11-28T04:51:15.359Z,13.10
2022-11-28T04:57:57.306Z,12.60
2022-11-28T05:00:50.126Z,12.83
2022-11-28T05:03:43.078Z,13.07
2022-11-28T05:07:09.293Z,13.57
2022-11-28T05:10:09.913Z,13.80
2022-11-28T05:12:57.668Z,13.03
2022-11-28T05:22:07.307Z,14.17
2022-11-28T05:24:52.957Z,14.90
2022-11-28T05:27:26.398Z,12.90
2022-11-28T05:29:53.971Z,12.97
2022-11-28T05:32:21.857Z,12.67
2022-11-28T05:34:49.480Z,13.97
2022-11-28T05:37:17.096Z,13.30
2022-11-28T05:39:44.894Z,14.93
2022-11-28T05:42:12.907Z,13.23
2022-11-28T05:44:40.503Z,12.60
2022-11-28T05:47:08.256Z,13.63
2022-11-28T05:49:35.893Z,13.90
2022-11-28T05:52:03.606Z,12.63
2022-11-28T05:54:31.552Z,14.33
2022-11-28T05:56:59.286Z,13.13
2022-11-28T05:59:26.977Z,18.40
2022-11-28T06:01:54.529Z,14.00
2022-11-28T06:04:22.224Z,14.43
2022-11-28T06:06:51.112Z,15.60
2022-11-28T06:09:23.230Z,13.10
2022-11-28T06:11:53.368Z,14.10
2022-11-28T06:14:20.994Z,13.17
2022-11-28T06:16:51.053Z,14.80
2022-11-28T06:19:18.836Z,16.10
2022-11-28T06:21:46.714Z,14.47
2022-11-28T06:24:14.569Z,13.43
2022-11-28T06:26:42.182Z,15.03
2022-11-28T06:29:09.786Z,17.80
2022-11-28T06:31:37.499Z,12.93
2022-11-28T06:34:05.243Z,12.97
2022-11-28T06:36:33.026Z,13.50
2022-11-28T06:39:03.669Z,12.97
2022-11-28T06:41:31.255Z,14.07
2022-11-28T06:43:58.863Z,13.13
2022-11-28T06:46:26.522Z,12.90
2022-11-28T06:48:54.291Z,14.07
2022-11-28T06:51:22.195Z,12.97
2022-11-28T06:53:50.827Z,14.73
2022-11-28T06:56:20.049Z,15.70
2022-11-28T06:58:53.453Z,15.40
2022-11-28T07:01:22.993Z,14.70
2022-11-28T07:03:59.471Z,13.83
2022-11-28T07:06:30.070Z,14.53
2022-11-28T07:09:00.950Z,14.03
2022-11-28T07:11:31.447Z,14.70
2022-11-28T07:14:08.243Z,15.73
2022-11-28T07:16:36.115Z,14.07
2022-11-28T07:19:04.281Z,17.33
2022-11-28T07:21:32.541Z,13.40
2022-11-28T07:24:00.755Z,13.93
2022-11-28T07:26:28.502Z,14.13
2022-11-28T07:28:58.190Z,14.77
2022-11-28T07:31:28.713Z,14.40
2022-11-28T07:33:56.382Z,17.50
2022-11-28T07:36:26.760Z,15.00
2022-11-28T07:38:57.112Z,16.43
2022-11-28T07:41:26.894Z,13.03
2022-11-28T07:44:00.450Z,13.57
2022-11-28T07:46:29.627Z,15.43
2022-11-28T07:48:57.555Z,16.63
2022-11-28T07:51:28.450Z,15.27
2022-11-28T07:53:56.312Z,13.80
2022-11-28T07:56:35.028Z,17.90
2022-11-28T07:59:07.838Z,13.77
2022-11-28T08:01:36.476Z,14.13
2022-11-28T08:04:06.906Z,12.93
2022-11-28T08:06:39.892Z,11.83
2022-11-28T08:09:08.212Z,11.83
2022-11-28T08:11:36.239Z,14.20
2022-11-28T08:14:05.204Z,12.53
2022-11-28T08:16:32.899Z,11.43
2022-11-28T08:19:02.062Z,12.97
2022-11-28T08:21:32.322Z,11.83
2022-11-28T08:24:02.267Z,12.07
2022-11-28T08:26:31.948Z,12.93
2022-11-28T08:29:01.281Z,10.50
2022-11-28T08:31:32.748Z,12.07
2022-11-28T08:34:02.321Z,11.37
2022-11-28T08:36:30.091Z,13.37
2022-11-28T08:39:23.580Z,12.43
2022-11-28T08:41:59.736Z,11.27
2022-11-28T08:44:30.394Z,15.23
2022-11-28T08:46:58.247Z,12.77
2022-11-28T08:49:33.342Z,13.53
2022-11-28T08:52:14.349Z,12.57
2022-11-28T08:54:42.210Z,12.70
2022-11-28T08:57:21.643Z,13.80
2022-11-28T09:00:19.445Z,12.10
2022-11-28T09:02:49.587Z,11.17
2022-11-28T09:05:38.143Z,12.67
2022-11-28T09:08:20.711Z,11.00
2022-11-28T09:11:10.013Z,13.23
2022-11-28T09:14:13.172Z,13.67
2022-11-28T09:16:41.459Z,12.13
2022-11-28T09:19:33.438Z,14.03
2022-11-28T09:22:25.130Z,11.43
2022-11-28T09:24:55.739Z,11.53
2022-11-28T09:27:23.350Z,11.10
2022-11-28T09:29:51.020Z,12.20
2022-11-28T09:32:18.611Z,13.37
2022-11-28T09:35:28.196Z,13.17
2022-11-28T09:38:32.303Z,11.83
2022-11-28T09:41:22.733Z,12.50
2022-11-28T09:43:54.984Z,12.83
2022-11-28T09:46:29.820Z,16.37
2022-11-28T09:49:02.005Z,12.53
2022-11-28T09:51:51.265Z,11.33
2022-11-28T09:54:42.793Z,12.70
2022-11-28T09:57:59.833Z,15.17
2022-11-28T10:01:30.868Z,14.20
2022-11-28T10:04:21.632Z,12.23
2022-11-28T10:07:25.602Z,12.87
2022-11-28T10:16:55.416Z,13.70
2022-11-28T10:20:05.231Z,13.90
2022-11-28T10:23:27.859Z,14.40
2022-11-28T10:26:41.320Z,14.27
2022-11-28T10:33:53.795Z,13.13
2022-11-28T10:37:14.939Z,13.27
2022-11-28T10:40:21.234Z,16.57
2022-11-28T10:46:41.859Z,15.70
2022-11-28T10:49:51.647Z,15.77
2022-11-28T10:53:14.733Z,13.33
2022-11-28T10:56:30.113Z,15.43
2022-11-28T11:02:50.755Z,15.03
2022-11-28T11:06:11.815Z,13.63
2022-11-28T11:08:55.299Z,13.80
2022-11-28T11:12:04.876Z,12.43
2022-11-28T11:18:05.691Z,14.93
2022-11-28T11:21:40.756Z,14.00
2022-11-28T11:25:05.483Z,14.17
2022-11-28T11:27:40.513Z,13.57
2022-11-28T11:30:45.060Z,14.47
2022-11-28T11:34:17.280Z,17.67
2022-11-28T11:37:03.550Z,13.30
2022-11-28T11:40:12.459Z,14.77
2022-11-28T11:43:16.784Z,16.27
2022-11-28T11:46:17.343Z,14.03
2022-11-28T11:49:13.471Z,15.33
2022-11-28T11:55:12.413Z,17.20
2022-11-28T11:58:09.864Z,14.77
2022-11-28T12:01:32.501Z,15.17
2022-11-28T12:04:51.071Z,14.23
2022-11-28T12:08:12.623Z,15.67
2022-11-28T12:11:31.645Z,14.23
2022-11-28T12:14:51.356Z,15.33
2022-11-28T12:18:17.670Z,15.53
2022-11-28T12:21:13.440Z,16.17
2022-11-28T12:24:12.515Z,17.57
2022-11-28T12:30:13.591Z,16.23
2022-11-28T12:33:12.787Z,15.23
2022-11-28T12:36:13.862Z,17.07
2022-11-28T12:39:12.349Z,18.53
2022-11-28T12:42:24.112Z,16.47
2022-11-28T12:49:01.272Z,16.10
2022-11-28T12:52:04.332Z,16.17
2022-11-28T12:55:16.446Z,18.63
2022-11-28T13:04:57.193Z,15.87
2022-11-28T13:11:58.247Z,17.10
2022-11-28T13:15:09.141Z,18.17
2022-11-28T13:22:27.788Z,19.43
2022-11-28T13:28:43.034Z,15.87
2022-11-28T13:31:48.187Z,16.33
2022-11-28T13:34:24.109Z,34.93
2022-11-28T13:41:52.731Z,23.83
2022-11-28T13:44:31.542Z,17.50
2022-11-28T13:47:21.756Z,28.13
2022-11-28T13:49:49.524Z,19.73
2022-11-28T13:52:20.165Z,19.27
2022-11-28T13:54:50.569Z,20.57
2022-11-28T13:57:29.240Z,18.90
2022-11-28T14:00:27.836Z,19.77
2022-11-28T14:02:59.985Z,18.87
2022-11-28T14:05:41.680Z,17.03
2022-11-28T14:08:29.818Z,18.77
2022-11-28T14:11:27.995Z,17.27
2022-11-28T14:14:07.765Z,17.73
2022-11-28T14:16:51.607Z,19.03
2022-11-28T14:19:37.550Z,19.23
2022-11-28T14:22:23.684Z,18.23
2022-11-28T14:25:11.552Z,18.80
2022-11-28T14:27:47.133Z,17.60
2022-11-28T14:30:34.993Z,19.37
2022-11-28T14:33:38.417Z,18.90
2022-11-28T14:40:47.144Z,19.23
2022-11-28T14:43:23.743Z,17.73
2022-11-28T14:45:52.729Z,20.13
2022-11-28T14:48:23.183Z,20.27
2022-11-28T14:51:01.018Z,18.37
2022-11-28T14:53:36.274Z,19.97
2022-11-28T14:56:30.593Z,20.47
2022-11-28T14:59:03.477Z,19.43
2022-11-28T15:01:43.840Z,18.10
2022-11-28T15:04:23.445Z,21.87
2022-11-28T15:06:51.722Z,20.83
2022-11-28T15:09:37.174Z,19.37
2022-11-28T15:12:31.842Z,21.33
2022-11-28T15:15:00.083Z,21.90
2022-11-28T15:17:33.398Z,21.73
2022-11-28T15:20:13.225Z,20.73
2022-11-28T15:22:43.004Z,19.93
2022-11-28T17:14:22.242Z,21.40
2022-11-28T17:16:50.099Z,21.30
2022-11-28T17:19:18.065Z,21.27
2022-11-28T17:21:50.680Z,22.93
2022-11-28T17:24:26.476Z,23.60
2022-11-28T17:26:55.028Z,21.63
2022-11-28T17:29:23.028Z,24.17
2022-11-28T17:31:50.842Z,21.40
2022-11-28T17:34:26.772Z,23.17
2022-11-28T17:36:54.473Z,22.40
2022-11-28T17:39:22.288Z,25.60
2022-11-28T17:44:37.571Z,24.67
2022-11-28T17:47:05.598Z,24.43
2022-11-28T17:49:33.562Z,23.30
2022-11-28T17:52:03.883Z,23.63
2022-11-28T17:54:47.357Z,21.00
2022-11-28T18:00:43.076Z,20.07
2022-11-28T18:03:20.281Z,23.13
2022-11-28T18:05:49.504Z,24.23
2022-11-28T18:08:22.138Z,24.17
2022-11-28T18:10:50.376Z,25.63
2022-11-28T18:13:21.011Z,22.43
2022-11-28T18:15:52.913Z,26.17
2022-11-28T18:18:20.547Z,26.43
2022-11-28T18:20:48.238Z,25.37
2022-11-28T18:23:15.829Z,25.20
2022-11-28T18:25:44.482Z,23.50
2022-11-28T18:28:18.571Z,26.13
2022-11-28T18:30:49.115Z,28.03
2022-11-28T18:33:16.882Z,25.30
2022-11-28T18:35:47.740Z,25.40
2022-11-28T18:38:18.178Z,25.60
2022-11-28T18:40:45.727Z,28.60
2022-11-28T18:43:13.308Z,30.07
2022-11-28T18:45:40.930Z,25.60
2022-11-28T18:48:08.583Z,26.87
2022-11-28T18:50:36.223Z,30.57
2022-11-28T18:53:03.852Z,26.30
2022-11-28T18:55:31.393Z,27.83
2022-11-28T18:57:59.767Z,26.43
2022-11-28T19:00:27.423Z,26.43
2022-11-28T19:02:55.231Z,26.70
2022-11-28T19:05:22.810Z,27.17
2022-11-28T19:07:50.475Z,24.90
2022-11-28T19:10:18.185Z,26.43
2022-11-28T19:12:46.057Z,28.20
2022-11-28T19:15:13.738Z,29.83
2022-11-28T19:17:41.351Z,27.33
2022-11-28T19:20:11.010Z,27.83
2022-11-28T19:22:38.576Z,27.37
2022-11-28T19:25:06.854Z,26.20
2022-11-28T19:27:34.517Z,29.10
2022-11-28T19:30:02.208Z,31.23
2022-11-28T19:32:29.888Z,26.90
2022-11-28T19:34:57.518Z,29.57
2022-11-28T19:37:25.098Z,29.67
2022-11-28T19:39:52.662Z,30.03
2022-11-28T19:42:20.228Z,28.50
2022-11-28T19:44:47.812Z,26.63
2022-11-28T19:47:15.381Z,30.90
2022-11-28T19:49:43.194Z,30.13
2022-11-28T19:52:11.096Z,26.17
2022-11-28T19:54:38.717Z,29.77
2022-11-28T19:57:10.364Z,29.47
2022-11-28T19:59:37.992Z,30.13
2022-11-28T20:02:06.188Z,28.73
2022-11-28T20:04:33.841Z,28.67
2022-11-28T20:07:01.405Z,29.47
2022-11-28T20:09:29.059Z,27.20
2022-11-28T20:11:56.677Z,28.87
2022-11-28T20:14:24.248Z,29.90
2022-11-28T20:16:51.950Z,27.80
2022-11-28T20:19:21.853Z,28.67
2022-11-28T20:21:49.385Z,28.53
2022-11-28T20:24:19.153Z,27.07
2022-11-28T20:26:47.103Z,30.20
2022-11-28T20:29:16.803Z,27.17
2022-11-28T20:31:46.563Z,27.60
2022-11-28T20:34:15.604Z,32.63
2022-11-28T20:36:43.733Z,31.90
2022-11-28T20:39:12.330Z,27.50
2022-11-28T20:41:40.044Z,32.33
2022-11-28T20:44:08.208Z,30.37
2022-11-28T20:46:35.925Z,27.83
2022-11-28T20:49:05.649Z,28.30
2022-11-28T20:51:34.933Z,30.07
2022-11-28T20:54:04.750Z,32.13
2022-11-28T20:56:46.499Z,30.47
2022-11-28T20:59:22.799Z,28.17
2022-11-28T21:01:50.734Z,31.23
2022-11-28T21:04:18.910Z,27.27
2022-11-28T21:06:48.909Z,28.43
2022-11-28T21:09:18.451Z,27.63
2022-11-28T21:12:02.844Z,30.40
2022-11-28T21:14:30.504Z,28.73
2022-11-28T21:16:58.873Z,31.23
2022-11-28T21:19:26.600Z,30.17
2022-11-28T21:21:54.308Z,31.20
2022-11-28T21:24:21.955Z,29.80
2022-11-28T21:26:53.506Z,28.87
2022-11-28T21:29:23.566Z,30.10
2022-11-28T21:31:51.744Z,29.40
2022-11-28T21:34:19.628Z,33.07
2022-11-28T21:36:47.766Z,32.33
2022-11-28T21:39:20.344Z,29.70
2022-11-28T21:41:48.406Z,39.20
2022-11-28T21:44:16.080Z,39.57
2022-11-28T21:46:43.762Z,36.83
2022-11-28T21:49:11.356Z,33.93
2022-11-28T21:51:39.065Z,37.90
2022-11-28T21:54:06.733Z,29.47
2022-11-28T21:56:39.803Z,31.03
2022-11-28T21:59:10.151Z,31.03
2022-11-28T22:01:37.823Z,31.13
2022-11-28T22:04:06.270Z,32.87
2022-11-28T22:06:33.993Z,31.53
2022-11-28T22:09:08.629Z,30.70
2022-11-28T22:11:37.100Z,33.90
2022-11-28T22:14:04.991Z,30.97
2022-11-28T22:16:32.771Z,33.03
2022-11-28T22:19:01.131Z,29.67
2022-11-28T22:21:52.285Z,29.77
2022-11-28T22:24:17.126Z,29.53
2022-11-28T22:26:44.714Z,26.87
2022-11-28T22:29:12.342Z,26.17
2022-11-28T22:31:40.052Z,24.07
2022-11-28T22:34:09.217Z,25.07
2022-11-28T22:36:37.547Z,26.43
2022-11-28T22:39:06.124Z,24.47
2022-11-28T22:41:36.202Z,26.97
2022-11-28T22:47:19.620Z,25.57
2022-11-28T22:50:23.871Z,30.70
2022-11-28T22:53:23.509Z,30.70
2022-11-28T22:56:55.684Z,29.97
2022-11-28T22:59:41.843Z,29.53
2022-11-28T23:02:22.783Z,28.27
2022-11-28T23:04:50.473Z,28.07
2022-11-28T23:07:18.093Z,28.90
2022-11-28T23:09:45.749Z,27.17
2022-11-28T23:12:13.334Z,26.27
2022-11-28T23:14:41.080Z,27.63
2022-11-28T23:17:08.768Z,23.27
2022-11-28T23:19:36.330Z,21.73
2022-11-28T23:22:04.604Z,22.37
2022-11-28T23:24:32.128Z,20.70
2022-11-28T23:26:59.751Z,24.53
2022-11-28T23:29:27.304Z,25.30
2022-11-28T23:31:54.917Z,27.30
2022-11-28T23:34:22.543Z,20.63
2022-11-28T23:36:50.124Z,21.23
2022-11-28T23:39:21.617Z,20.33
2022-11-28T23:41:50.202Z,19.17
2022-11-28T23:44:19.037Z,20.33
2022-11-28T23:46:46.938Z,22.63
2022-11-28T23:49:14.927Z,25.83
2022-11-28T23:51:42.636Z,23.30
2022-11-28T23:54:11.856Z,29.20
2022-11-28T23:56:41.132Z,25.10
2022-11-28T23:59:10.318Z,22.10
